createdAt,value
2017-09-12T00:00:59.196Z,91.02
2017-09-12T00:01:58.875Z,91.02
2017-09-12T00:02:58.867Z,91.02
2017-09-12T00:03:59.174Z,91.31
2017-09-12T00:04:59.164Z,91.31
2017-09-12T00:05:58.844Z,91.31
2017-09-12T00:06:59.152Z,91.31
2017-09-12T00:07:58.833Z,91.21
2017-09-12T00:08:59.136Z,91.41
2017-09-12T00:09:58.820Z,91.41
2017-09-12T00:10:59.124Z,91.69
2017-09-12T00:11:58.804Z,91.6
2017-09-12T00:12:59.108Z,91.5
2017-09-12T00:13:58.789Z,91.6
2017-09-12T00:14:59.100Z,91.41
2017-09-12T00:15:59.090Z,92.07
2017-09-12T00:16:59.081Z,92.07
2017-09-12T00:17:59.076Z,92.26
2017-09-12T00:18:59.067Z,92.17
2017-09-12T00:19:58.748Z,92.26
2017-09-12T00:20:58.741Z,92.07
2017-09-12T00:21:59.055Z,92.07
2017-09-12T00:22:58.724Z,92.07
2017-09-12T00:23:58.718Z,92.26
2017-09-12T00:24:58.710Z,92.17
2017-09-12T00:25:58.706Z,92.07
2017-09-12T00:26:58.698Z,92.65
2017-09-12T00:27:58.691Z,92.79
2017-09-12T00:28:58.681Z,92.6
2017-09-12T00:29:59.090Z,92.32
2017-09-12T00:30:58.668Z,92.69
2017-09-12T00:31:58.977Z,92.6
2017-09-12T00:32:58.974Z,92.5
2017-09-12T00:33:58.965Z,92.88
2017-09-12T00:34:58.639Z,93.55
2017-09-12T00:35:58.634Z,93.46
2017-09-12T00:36:58.625Z,93.36
2017-09-12T00:37:58.621Z,93.08
2017-09-12T00:38:58.613Z,93.17
2017-09-12T00:39:58.925Z,93.08
2017-09-12T00:40:58.597Z,92.79
2017-09-12T00:41:58.591Z,93.17
2017-09-12T00:42:58.902Z,93.36
2017-09-12T00:43:58.892Z,93.46
2017-09-12T00:44:58.881Z,93.17
2017-09-12T00:45:58.874Z,92.88
2017-09-12T00:46:58.873Z,93.17
2017-09-12T00:47:58.547Z,92.79
2017-09-12T00:48:58.853Z,93.17
2017-09-12T00:49:58.849Z,92.88
2017-09-12T00:50:58.844Z,92.93
2017-09-12T00:51:58.520Z,93.02
2017-09-12T00:52:58.825Z,93.12
2017-09-12T00:53:58.819Z,93.31
2017-09-12T00:54:58.811Z,93.02
2017-09-12T00:55:58.805Z,93.22
2017-09-12T00:56:58.897Z,93.02
2017-09-12T00:57:58.792Z,92.93
2017-09-12T00:58:58.783Z,93.6
2017-09-12T00:59:58.777Z,93.22
2017-09-12T01:00:58.768Z,93.31
2017-09-12T01:01:58.450Z,93.17
2017-09-12T01:02:58.757Z,93.46
2017-09-12T01:03:58.437Z,93.27
2017-09-12T01:04:58.530Z,92.88
2017-09-12T01:05:58.421Z,92.98
2017-09-12T01:06:58.726Z,93.17
2017-09-12T01:07:58.405Z,93.27
2017-09-12T01:08:58.399Z,93.08
2017-09-12T01:09:58.394Z,93.46
2017-09-12T01:10:58.386Z,92.98
2017-09-12T01:11:58.377Z,93.08
2017-09-12T01:12:58.373Z,93.36
2017-09-12T01:13:58.680Z,93.17
2017-09-12T01:14:58.668Z,93.27
2017-09-12T01:15:58.666Z,93.17
2017-09-12T01:16:58.344Z,93.17
2017-09-12T01:17:58.334Z,93.27
2017-09-12T01:18:58.328Z,92.88
2017-09-12T01:19:58.321Z,92.88
2017-09-12T01:20:58.627Z,93.27
2017-09-12T01:21:58.621Z,93.27
2017-09-12T01:22:58.298Z,92.6
2017-09-12T01:23:58.293Z,92.22
2017-09-12T01:24:58.703Z,92.41
2017-09-12T01:25:58.593Z,92.5
2017-09-12T01:26:58.272Z,92.22
2017-09-12T01:27:58.678Z,92.12
2017-09-12T01:28:58.256Z,92.12
2017-09-12T01:29:58.559Z,92.03
2017-09-12T01:30:58.242Z,91.46
2017-09-12T01:31:58.547Z,90.98
2017-09-12T01:32:58.547Z,91.17
2017-09-12T01:33:58.221Z,91.27
2017-09-12T01:34:58.527Z,91.27
2017-09-12T01:35:58.216Z,90.98
2017-09-12T01:36:58.513Z,90.88
2017-09-12T01:37:58.190Z,90.64
2017-09-12T01:38:58.184Z,90.83
2017-09-12T01:39:58.490Z,90.45
2017-09-12T01:40:58.485Z,90.26
2017-09-12T01:41:58.511Z,89.97
2017-09-12T01:42:58.160Z,90.17
2017-09-12T01:43:58.459Z,90.73
2017-09-12T01:44:58.555Z,90.45
2017-09-12T01:45:58.446Z,90.26
2017-09-12T01:46:58.441Z,90.45
2017-09-12T01:47:58.435Z,89.88
2017-09-12T01:48:58.426Z,90.07
2017-09-12T01:49:58.106Z,89.88
2017-09-12T01:50:58.413Z,89.78
2017-09-12T01:51:58.405Z,90.17
2017-09-12T01:52:58.406Z,89.78
2017-09-12T01:53:58.077Z,89.88
2017-09-12T01:54:58.384Z,90.07
2017-09-12T01:55:58.377Z,90.07
2017-09-12T01:56:58.055Z,90.26
2017-09-12T01:57:58.363Z,89.88
2017-09-12T01:58:58.353Z,89.78
2017-09-12T01:59:58.132Z,89.78
2017-09-12T02:00:58.028Z,89.97
2017-09-12T02:01:58.334Z,89.78
2017-09-12T02:02:58.326Z,89.78
2017-09-12T02:03:58.321Z,89.97
2017-09-12T02:04:58.001Z,89.21
2017-09-12T02:05:58.301Z,89.5
2017-09-12T02:06:58.300Z,89.69
2017-09-12T02:07:57.977Z,89.31
2017-09-12T02:08:58.287Z,89.5
2017-09-12T02:09:57.962Z,89.31
2017-09-12T02:10:58.269Z,89.31
2017-09-12T02:11:58.262Z,89.4
2017-09-12T02:12:58.257Z,89.5
2017-09-12T02:13:58.249Z,89.59
2017-09-12T02:14:58.270Z,88.73
2017-09-12T02:15:57.920Z,89.12
2017-09-12T02:16:58.013Z,89.12
2017-09-12T02:17:57.903Z,89.02
2017-09-12T02:18:58.215Z,89.21
2017-09-12T02:19:58.206Z,88.64
2017-09-12T02:20:57.883Z,88.54
2017-09-12T02:21:58.188Z,88.64
2017-09-12T02:22:58.285Z,88.26
2017-09-12T02:23:57.862Z,88.54
2017-09-12T02:24:58.169Z,88.92
2017-09-12T02:25:57.849Z,88.92
2017-09-12T02:26:57.847Z,88.92
2017-09-12T02:27:57.832Z,88.73
2017-09-12T02:28:57.825Z,88.92
2017-09-12T02:29:58.135Z,88.92
2017-09-12T02:30:57.811Z,88.73
2017-09-12T02:31:58.119Z,88.54
2017-09-12T02:32:58.113Z,88.92
2017-09-12T02:33:58.102Z,88.73
2017-09-12T02:34:58.097Z,89.02
2017-09-12T02:35:58.088Z,89.12
2017-09-12T02:36:57.769Z,88.64
2017-09-12T02:37:57.864Z,88.73
2017-09-12T02:38:58.074Z,88.73
2017-09-12T02:39:57.748Z,88.83
2017-09-12T02:40:57.741Z,88.83
2017-09-12T02:41:58.045Z,88.83
2017-09-12T02:42:58.042Z,88.54
2017-09-12T02:43:58.134Z,88.54
2017-09-12T02:44:57.713Z,88.35
2017-09-12T02:45:57.705Z,88.54
2017-09-12T02:46:57.699Z,88.64
2017-09-12T02:47:57.691Z,88.54
2017-09-12T02:48:57.999Z,88.54
2017-09-12T02:49:57.990Z,88.73
2017-09-12T02:50:58.086Z,88.16
2017-09-12T02:51:57.975Z,88.54
2017-09-12T02:52:57.657Z,88.54
2017-09-12T02:53:57.961Z,88.16
2017-09-12T02:54:57.639Z,87.97
2017-09-12T02:55:57.945Z,88.16
2017-09-12T02:56:57.625Z,88.07
2017-09-12T02:57:57.621Z,88.07
2017-09-12T02:58:57.609Z,87.97
2017-09-12T02:59:58.020Z,88.26
2017-09-12T03:00:58.008Z,88.16
2017-09-12T03:01:57.903Z,88.35
2017-09-12T03:02:57.894Z,88.54
2017-09-12T03:03:57.888Z,88.45
2017-09-12T03:04:57.572Z,88.83
2017-09-12T03:05:57.661Z,88.35
2017-09-12T03:06:57.556Z,88.45
2017-09-12T03:07:57.547Z,88.73
2017-09-12T03:08:57.538Z,88.83
2017-09-12T03:09:57.633Z,88.16
2017-09-12T03:10:57.525Z,89.12
2017-09-12T03:11:57.831Z,88.92
2017-09-12T03:12:57.822Z,89.5
2017-09-12T03:13:57.814Z,89.31
2017-09-12T03:14:57.495Z,89.4
2017-09-12T03:15:57.802Z,89.69
2017-09-12T03:16:57.795Z,89.78
2017-09-12T03:17:57.786Z,89.88
2017-09-12T03:18:57.782Z,89.78
2017-09-12T03:19:57.770Z,90.17
2017-09-12T03:20:57.453Z,89.88
2017-09-12T03:21:57.446Z,90.45
2017-09-12T03:22:57.438Z,90.36
2017-09-12T03:23:57.432Z,90.45
2017-09-12T03:24:57.737Z,90.36
2017-09-12T03:25:57.729Z,90.45
2017-09-12T03:26:57.725Z,90.83
2017-09-12T03:27:57.723Z,90.83
2017-09-12T03:28:57.396Z,90.73
2017-09-12T03:29:57.387Z,91.12
2017-09-12T03:30:57.383Z,90.83
2017-09-12T03:31:57.688Z,90.83
2017-09-12T03:32:57.368Z,90.64
2017-09-12T03:33:57.674Z,90.83
2017-09-12T03:34:57.353Z,91.02
2017-09-12T03:35:57.345Z,90.36
2017-09-12T03:36:57.340Z,90.36
2017-09-12T03:37:57.642Z,90.55
2017-09-12T03:38:57.424Z,89.69
2017-09-12T03:39:57.628Z,88.92
2017-09-12T03:40:57.310Z,89.21
2017-09-12T03:41:57.302Z,88.54
2017-09-12T03:42:57.611Z,88.45
2017-09-12T03:43:57.600Z,88.73
2017-09-12T03:44:57.279Z,87.87
2017-09-12T03:45:57.273Z,88.26
2017-09-12T03:46:57.266Z,88.16
2017-09-12T03:47:57.573Z,88.07
2017-09-12T03:48:57.564Z,87.97
2017-09-12T03:49:57.246Z,87.97
2017-09-12T03:50:57.549Z,88.16
2017-09-12T03:51:57.540Z,88.16
2017-09-12T03:52:57.537Z,88.35
2017-09-12T03:53:57.529Z,88.35
2017-09-12T03:54:57.209Z,87.97
2017-09-12T03:55:57.201Z,88.45
2017-09-12T03:56:57.503Z,88.45
2017-09-12T03:57:57.509Z,88.83
2017-09-12T03:58:57.282Z,88.73
2017-09-12T03:59:57.486Z,88.07
2017-09-12T04:00:57.478Z,88.64
2017-09-12T04:01:57.470Z,88.54
2017-09-12T04:02:57.462Z,88.45
2017-09-12T04:03:57.142Z,88.45
2017-09-12T04:04:57.137Z,88.54
2017-09-12T04:05:57.130Z,88.73
2017-09-12T04:06:57.121Z,88.83
2017-09-12T04:07:57.533Z,88.73
2017-09-12T04:08:57.418Z,88.26
2017-09-12T04:09:57.099Z,89.02
2017-09-12T04:10:57.415Z,88.92
2017-09-12T04:11:57.399Z,88.73
2017-09-12T04:12:57.180Z,89.5
2017-09-12T04:13:57.388Z,89.5
2017-09-12T04:14:57.065Z,89.21
2017-09-12T04:15:57.058Z,89.59
2017-09-12T04:16:57.362Z,89.97
2017-09-12T04:17:57.354Z,89.88
2017-09-12T04:18:57.036Z,90.17
2017-09-12T04:19:57.028Z,90.07
2017-09-12T04:20:57.020Z,90.45
2017-09-12T04:21:57.325Z,90.26
2017-09-12T04:22:57.004Z,90.83
2017-09-12T04:23:57.098Z,90.64
2017-09-12T04:24:57.305Z,90.73
2017-09-12T04:25:57.297Z,91.41
2017-09-12T04:26:56.975Z,91.41
2017-09-12T04:27:56.972Z,90.93
2017-09-12T04:28:56.963Z,91.5
2017-09-12T04:29:57.265Z,91.31
2017-09-12T04:30:57.259Z,91.88
2017-09-12T04:31:57.251Z,92.26
2017-09-12T04:32:57.245Z,92.26
2017-09-12T04:33:57.339Z,92.26
2017-09-12T04:34:57.233Z,92.26
2017-09-12T04:35:57.326Z,92.83
2017-09-12T04:36:57.218Z,93.22
2017-09-12T04:37:56.898Z,93.08
2017-09-12T04:38:56.889Z,93.31
2017-09-12T04:39:57.196Z,92.98
2017-09-12T04:40:57.293Z,93.08
2017-09-12T04:41:56.868Z,93.36
2017-09-12T04:42:57.180Z,93.55
2017-09-12T04:43:57.189Z,93.6
2017-09-12T04:44:57.158Z,93.98
2017-09-12T04:45:57.153Z,93.98
2017-09-12T04:46:57.146Z,94.07
2017-09-12T04:47:56.825Z,93.98
2017-09-12T04:48:57.132Z,94.36
2017-09-12T04:49:57.123Z,94.36
2017-09-12T04:50:56.802Z,94.36
2017-09-12T04:51:56.797Z,94.51
2017-09-12T04:52:57.100Z,94.51
2017-09-12T04:53:56.780Z,94.46
2017-09-12T04:54:57.086Z,94.32
2017-09-12T04:55:56.766Z,95.12
2017-09-12T04:56:57.075Z,95.12
2017-09-12T04:57:57.064Z,95.12
2017-09-12T04:58:57.056Z,95.12
2017-09-12T04:59:57.053Z,95.12
2017-09-12T05:00:57.044Z,95.08
2017-09-12T05:01:57.039Z,95.12
2017-09-12T05:02:56.723Z,95.12
2017-09-12T05:03:57.023Z,95.12
2017-09-12T05:04:56.701Z,95.22
2017-09-12T05:05:56.695Z,95.17
2017-09-12T05:06:56.686Z,95.12
2017-09-12T05:07:56.994Z,94.79
2017-09-12T05:08:56.983Z,94.89
2017-09-12T05:09:56.975Z,95.46
2017-09-12T05:10:56.659Z,95.46
2017-09-12T05:11:56.651Z,95.32
2017-09-12T05:12:56.644Z,95.46
2017-09-12T05:13:56.636Z,95.37
2017-09-12T05:14:56.944Z,95.37
2017-09-12T05:15:56.620Z,95.12
2017-09-12T05:16:57.029Z,95.61
2017-09-12T05:17:56.920Z,95.61
2017-09-12T05:18:56.600Z,95.32
2017-09-12T05:19:56.590Z,95.61
2017-09-12T05:20:56.901Z,95.08
2017-09-12T05:21:56.677Z,95.17
2017-09-12T05:22:56.880Z,95.27
2017-09-12T05:23:56.662Z,95.46
2017-09-12T05:24:56.874Z,95.46
2017-09-12T05:25:56.866Z,95.27
2017-09-12T05:26:56.540Z,95.56
2017-09-12T05:27:56.532Z,95.79
2017-09-12T05:28:56.842Z,95.46
2017-09-12T05:29:56.833Z,95.46
2017-09-12T05:30:56.511Z,96.17
2017-09-12T05:31:56.503Z,95.98
2017-09-12T05:32:56.817Z,96.27
2017-09-12T05:33:56.490Z,96.46
2017-09-12T05:34:56.797Z,96.08
2017-09-12T05:35:56.790Z,96.37
2017-09-12T05:36:56.469Z,96.27
2017-09-12T05:37:56.772Z,95.98
2017-09-12T05:38:56.767Z,96.08
2017-09-12T05:39:56.762Z,96.17
2017-09-12T05:40:56.753Z,96.27
2017-09-12T05:41:56.746Z,96.75
2017-09-12T05:42:56.737Z,96.46
2017-09-12T05:43:56.416Z,96.41
2017-09-12T05:44:56.725Z,96.84
2017-09-12T05:45:56.713Z,97.37
2017-09-12T05:46:56.706Z,97.03
2017-09-12T05:47:56.703Z,96.46
2017-09-12T05:48:56.696Z,96.84
2017-09-12T05:49:56.373Z,97.46
2017-09-12T05:50:56.367Z,96.89
2017-09-12T05:51:56.359Z,96.98
2017-09-12T05:52:56.358Z,97.56
2017-09-12T05:53:56.657Z,97.75
2017-09-12T05:54:56.655Z,97.46
2017-09-12T05:55:56.642Z,97.66
2017-09-12T05:56:56.423Z,97.27
2017-09-12T05:57:56.315Z,97.56
2017-09-12T05:58:56.628Z,97.27
2017-09-12T05:59:56.611Z,97.46
2017-09-12T06:00:56.292Z,97.46
2017-09-12T06:01:56.606Z,97.37
2017-09-12T06:02:56.590Z,97.08
2017-09-12T06:03:56.272Z,97.27
2017-09-12T06:04:56.580Z,97.37
2017-09-12T06:05:56.259Z,97.66
2017-09-12T06:06:56.564Z,97.56
2017-09-12T06:07:56.557Z,97.56
2017-09-12T06:08:56.552Z,97.94
2017-09-12T06:09:56.546Z,98.22
2017-09-12T06:10:56.224Z,98.03
2017-09-12T06:11:56.214Z,98.13
2017-09-12T06:12:56.522Z,97.66
2017-09-12T06:13:56.513Z,97.99
2017-09-12T06:14:56.506Z,97.85
2017-09-12T06:15:56.187Z,97.94
2017-09-12T06:16:56.594Z,98.32
2017-09-12T06:17:56.173Z,98.13
2017-09-12T06:19:11.075Z,98.22
2017-09-12T06:19:56.158Z,98.03
2017-09-12T06:20:56.150Z,98.51
2017-09-12T06:21:56.142Z,98.42
2017-09-12T06:22:56.136Z,98.32
2017-09-12T06:23:56.442Z,98.42
2017-09-12T06:24:56.440Z,98.37
2017-09-12T06:25:56.114Z,98.37
2017-09-12T06:26:56.207Z,98.61
2017-09-12T06:27:56.417Z,98.08
2017-09-12T06:28:56.094Z,98.37
2017-09-12T06:29:56.402Z,98.66
2017-09-12T06:30:56.392Z,98.56
2017-09-12T06:31:56.388Z,98.61
2017-09-12T06:32:56.063Z,98.75
2017-09-12T06:33:56.057Z,98.47
2017-09-12T06:34:56.048Z,98.37
2017-09-12T06:35:56.361Z,98.37
2017-09-12T06:36:56.357Z,98.75
2017-09-12T06:37:56.342Z,98.66
2017-09-12T06:38:56.024Z,98.37
2017-09-12T06:39:56.330Z,98.56
2017-09-12T06:40:56.322Z,98.66
2017-09-12T06:41:56.102Z,98.75
2017-09-12T06:42:56.306Z,98.37
2017-09-12T06:43:56.301Z,98.66
2017-09-12T06:44:55.978Z,98.08
2017-09-12T06:45:55.973Z,97.61
2017-09-12T06:46:56.282Z,97.71
2017-09-12T06:47:56.272Z,98.08
2017-09-12T06:48:56.267Z,97.8
2017-09-12T06:49:56.261Z,97.71
2017-09-12T06:50:55.938Z,97.32
2017-09-12T06:51:56.245Z,97.13
2017-09-12T06:52:56.241Z,97.13
2017-09-12T06:53:56.017Z,97.61
2017-09-12T06:54:55.910Z,97.51
2017-09-12T06:55:56.003Z,97.51
2017-09-12T06:56:55.897Z,98.08
2017-09-12T06:57:55.888Z,97.51
2017-09-12T06:58:56.196Z,97.51
2017-09-12T06:59:56.189Z,97.13
2017-09-12T07:00:56.183Z,97.22
2017-09-12T07:01:55.861Z,97.51
2017-09-12T07:02:55.855Z,97.8
2017-09-12T07:03:55.850Z,97.51
2017-09-12T07:04:55.842Z,98.18
2017-09-12T07:05:55.834Z,98.27
2017-09-12T07:06:55.827Z,97.61
2017-09-12T07:07:55.820Z,97.99
2017-09-12T07:08:56.227Z,97.89
2017-09-12T07:09:55.806Z,97.89
2017-09-12T07:10:56.112Z,97.8
2017-09-12T07:11:55.796Z,97.99
2017-09-12T07:12:55.787Z,97.56
2017-09-12T07:13:55.778Z,97.61
2017-09-12T07:14:55.772Z,97.32
2017-09-12T07:15:56.085Z,97.56
2017-09-12T07:16:55.759Z,97.27
2017-09-12T07:17:55.752Z,97.37
2017-09-12T07:18:56.061Z,97.56
2017-09-12T07:19:56.057Z,96.98
2017-09-12T07:20:56.047Z,96.42
2017-09-12T07:21:55.725Z,96.42
2017-09-12T07:22:55.722Z,95.84
2017-09-12T07:23:56.125Z,94.89
2017-09-12T07:24:55.706Z,95.36
2017-09-12T07:25:56.013Z,94.6
2017-09-12T07:26:55.697Z,94.31
2017-09-12T07:27:55.686Z,94.51
2017-09-12T07:28:55.680Z,94.41
2017-09-12T07:29:55.988Z,94.03
2017-09-12T07:30:55.979Z,93.93
2017-09-12T07:31:55.663Z,93.84
2017-09-12T07:32:55.968Z,93.26
2017-09-12T07:33:55.646Z,93.17
2017-09-12T07:34:55.638Z,93.65
2017-09-12T07:35:55.632Z,92.88
2017-09-12T07:36:55.938Z,92.31
2017-09-12T07:37:55.937Z,92.31
2017-09-12T07:38:55.612Z,92.88
2017-09-12T07:39:55.918Z,92.79
2017-09-12T07:40:55.598Z,92.69
2017-09-12T07:41:55.904Z,92.69
2017-09-12T07:42:55.896Z,92.21
2017-09-12T07:43:55.579Z,92.5
2017-09-12T07:44:55.886Z,92.12
2017-09-12T07:45:55.880Z,92.12
2017-09-12T07:46:55.558Z,92.41
2017-09-12T07:47:55.867Z,91.74
2017-09-12T07:48:55.543Z,92.21
2017-09-12T07:49:55.538Z,92.88
2017-09-12T07:50:55.846Z,92.31
2017-09-12T07:51:55.849Z,92.31
2017-09-12T07:52:55.832Z,92.31
2017-09-12T07:53:55.509Z,92.02
2017-09-12T07:54:55.819Z,92.12
2017-09-12T07:55:55.812Z,92.31
2017-09-12T07:56:55.592Z,92.5
2017-09-12T07:57:55.484Z,91.55
2017-09-12T07:58:55.476Z,91.16
2017-09-12T07:59:55.470Z,91.36
2017-09-12T08:00:55.465Z,91.45
2017-09-12T08:01:55.770Z,91.74
2017-09-12T08:02:55.552Z,91.55
2017-09-12T08:03:55.756Z,91.55
2017-09-12T08:04:55.437Z,92.12
2017-09-12T08:05:55.456Z,91.55
2017-09-12T08:06:55.739Z,91.36
2017-09-12T08:07:55.731Z,91.74
2017-09-12T08:08:55.727Z,92.12
2017-09-12T08:09:55.404Z,92.21
2017-09-12T08:10:55.396Z,92.31
2017-09-12T08:11:55.704Z,92.26
2017-09-12T08:12:55.384Z,91.59
2017-09-12T08:13:55.376Z,91.5
2017-09-12T08:14:55.679Z,90.92
2017-09-12T08:15:55.361Z,90.45
2017-09-12T08:16:55.670Z,90.16
2017-09-12T08:17:55.350Z,89.11
2017-09-12T08:18:55.339Z,88.34
2017-09-12T08:19:55.653Z,88.82
2017-09-12T08:20:55.649Z,89.01
2017-09-12T08:21:55.636Z,89.01
2017-09-12T08:22:55.315Z,89.11
2017-09-12T08:23:55.620Z,89.49
2017-09-12T08:24:55.615Z,89.34
2017-09-12T08:25:55.609Z,87.62
2017-09-12T08:26:55.602Z,87.05
2017-09-12T08:27:55.596Z,86.57
2017-09-12T08:28:55.589Z,86.47
2017-09-12T08:29:55.580Z,85.09
2017-09-12T08:30:55.578Z,84.47
2017-09-12T08:31:55.256Z,84.95
2017-09-12T08:32:55.250Z,84.47
2017-09-12T08:33:55.243Z,84.85
2017-09-12T08:34:55.548Z,85.81
2017-09-12T08:35:55.543Z,86.1
2017-09-12T08:36:55.220Z,86.67
2017-09-12T08:37:55.526Z,86.86
2017-09-12T08:38:55.527Z,85.81
2017-09-12T08:39:55.516Z,85.47
2017-09-12T08:40:55.194Z,84.13
2017-09-12T08:41:55.503Z,83.37
2017-09-12T08:42:55.183Z,83.61
2017-09-12T08:43:55.490Z,83.51
2017-09-12T08:44:55.485Z,83.9
2017-09-12T08:45:55.473Z,84.09
2017-09-12T08:46:55.155Z,84.19
2017-09-12T08:47:55.459Z,84.28
2017-09-12T08:48:55.455Z,84.09
2017-09-12T08:49:55.447Z,83.51
2017-09-12T08:50:55.128Z,83.7
2017-09-12T08:51:55.433Z,84.38
2017-09-12T08:52:55.429Z,84.56
2017-09-12T08:53:55.520Z,84.76
2017-09-12T08:54:55.102Z,83.9
2017-09-12T08:55:55.406Z,83.65
2017-09-12T08:56:55.088Z,84.52
2017-09-12T08:57:55.495Z,83.27
2017-09-12T08:58:55.077Z,82.79
2017-09-12T08:59:55.387Z,82.12
2017-09-12T09:00:55.377Z,82.79
2017-09-12T09:01:55.373Z,82.22
2017-09-12T09:02:55.363Z,81.89
2017-09-12T09:03:55.360Z,81.89
2017-09-12T09:04:55.349Z,82.31
2017-09-12T09:05:55.030Z,81.51
2017-09-12T09:06:55.443Z,81.79
2017-09-12T09:07:55.017Z,81.99
2017-09-12T09:08:55.332Z,82.84
2017-09-12T09:09:55.003Z,82.84
2017-09-12T09:10:55.314Z,82.37
2017-09-12T09:11:55.308Z,82.46
2017-09-12T09:12:55.296Z,81.79
2017-09-12T09:13:55.078Z,82.08
2017-09-12T09:14:55.282Z,81.99
2017-09-12T09:15:55.379Z,81.89
2017-09-12T09:16:54.959Z,82.08
2017-09-12T09:17:55.263Z,82.46
2017-09-12T09:18:54.945Z,82.75
2017-09-12T09:19:54.938Z,83.23
2017-09-12T09:20:55.255Z,83.7
2017-09-12T09:21:54.925Z,83.51
2017-09-12T09:22:54.921Z,83.8
2017-09-12T09:23:55.229Z,82.94
2017-09-12T09:24:55.225Z,82.75
2017-09-12T09:25:55.211Z,82.84
2017-09-12T09:26:55.208Z,82.46
2017-09-12T09:27:55.200Z,82.08
2017-09-12T09:28:54.881Z,82.56
2017-09-12T09:29:55.194Z,82.56
2017-09-12T09:30:54.867Z,82.61
2017-09-12T09:31:55.178Z,83.28
2017-09-12T09:32:54.855Z,83.76
2017-09-12T09:33:55.164Z,83.86
2017-09-12T09:34:55.156Z,84.43
2017-09-12T09:35:54.835Z,84.23
2017-09-12T09:36:55.142Z,83.95
2017-09-12T09:37:54.821Z,84.76
2017-09-12T09:38:54.813Z,85.29
2017-09-12T09:39:55.123Z,84.81
2017-09-12T09:40:54.802Z,85.33
2017-09-12T09:41:55.112Z,85.96
2017-09-12T09:42:54.790Z,86.34
2017-09-12T09:43:54.783Z,86.72
2017-09-12T09:44:55.090Z,86.91
2017-09-12T09:45:55.092Z,87.01
2017-09-12T09:46:54.766Z,87.39
2017-09-12T09:47:55.071Z,87.77
2017-09-12T09:48:55.065Z,87.68
2017-09-12T09:49:54.745Z,87.58
2017-09-12T09:50:55.055Z,87.87
2017-09-12T09:51:55.042Z,87.53
2017-09-12T09:52:54.728Z,86.91
2017-09-12T09:53:55.033Z,86.63
2017-09-12T09:54:54.712Z,86.47
2017-09-12T09:55:55.019Z,85.42
2017-09-12T09:56:54.700Z,85.33
2017-09-12T09:57:55.006Z,85.71
2017-09-12T09:58:54.688Z,85.14
2017-09-12T09:59:54.682Z,84.95
2017-09-12T10:00:54.676Z,85.24
2017-09-12T10:01:54.981Z,83.51
2017-09-12T10:02:54.663Z,82.46
2017-09-12T10:03:54.657Z,82.56
2017-09-12T10:04:54.968Z,83
2017-09-12T10:05:54.642Z,83.04
2017-09-12T10:06:54.739Z,83.09
2017-09-12T10:07:54.944Z,82.81
2017-09-12T10:08:54.940Z,82.84
2017-09-12T10:09:54.619Z,82.18
2017-09-12T10:10:54.930Z,82.18
2017-09-12T10:11:54.607Z,82.08
2017-09-12T10:12:54.917Z,81.99
2017-09-12T10:13:54.595Z,82.56
2017-09-12T10:14:54.591Z,82.94
2017-09-12T10:15:54.584Z,83.61
2017-09-12T10:16:54.576Z,83.61
2017-09-12T10:17:54.882Z,83.7
2017-09-12T10:18:54.569Z,83.7
2017-09-12T10:19:54.874Z,84.28
2017-09-12T10:20:54.553Z,83.99
2017-09-12T10:21:54.859Z,84.66
2017-09-12T10:22:54.541Z,84.85
2017-09-12T10:23:54.534Z,85.05
2017-09-12T10:24:54.843Z,85.71
2017-09-12T10:25:54.834Z,85.05
2017-09-12T10:26:54.516Z,84.8
2017-09-12T10:27:54.510Z,85.38
2017-09-12T10:28:54.505Z,85.75
2017-09-12T10:29:54.500Z,85.94
2017-09-12T10:30:54.495Z,85.57
2017-09-12T10:31:54.486Z,85.09
2017-09-12T10:32:54.896Z,84.99
2017-09-12T10:33:54.474Z,84.99
2017-09-12T10:34:54.469Z,84.99
2017-09-12T10:35:54.462Z,84.99
2017-09-12T10:36:54.774Z,84.61
2017-09-12T10:37:54.765Z,84.61
2017-09-12T10:38:54.759Z,84.52
2017-09-12T10:39:54.439Z,85.09
2017-09-12T10:40:54.433Z,84.52
2017-09-12T10:41:54.427Z,84.61
2017-09-12T10:42:54.735Z,84.99
2017-09-12T10:43:54.416Z,85.28
2017-09-12T10:44:54.726Z,84.8
2017-09-12T10:45:54.720Z,85.28
2017-09-12T10:46:54.712Z,84.89
2017-09-12T10:47:54.707Z,85.09
2017-09-12T10:48:54.384Z,85.38
2017-09-12T10:49:54.692Z,84.99
2017-09-12T10:50:54.689Z,85.94
2017-09-12T10:51:54.683Z,85.28
2017-09-12T10:52:54.364Z,85.18
2017-09-12T10:53:54.667Z,85.28
2017-09-12T10:54:54.764Z,85.75
2017-09-12T10:55:54.655Z,86.14
2017-09-12T10:56:54.341Z,86.9
2017-09-12T10:57:54.647Z,86.04
2017-09-12T10:58:54.642Z,86.04
2017-09-12T10:59:54.320Z,85.66
2017-09-12T11:00:54.625Z,85.09
2017-09-12T11:01:54.622Z,85.47
2017-09-12T11:02:54.616Z,85.57
2017-09-12T11:03:54.616Z,85.57
2017-09-12T11:04:54.604Z,85.57
2017-09-12T11:05:54.599Z,85.32
2017-09-12T11:06:54.278Z,85.66
2017-09-12T11:07:54.273Z,85.66
2017-09-12T11:08:54.267Z,86.14
2017-09-12T11:09:54.573Z,86.28
2017-09-12T11:10:54.569Z,85.99
2017-09-12T11:11:54.564Z,86.37
2017-09-12T11:12:54.242Z,85.22
2017-09-12T11:13:54.236Z,84.55
2017-09-12T11:14:54.547Z,83.89
2017-09-12T11:15:54.538Z,83.31
2017-09-12T11:16:54.533Z,83.03
2017-09-12T11:17:54.529Z,83.89
2017-09-12T11:18:54.207Z,83.89
2017-09-12T11:19:54.513Z,83.12
2017-09-12T11:20:54.195Z,82.35
2017-09-12T11:21:54.503Z,81.97
2017-09-12T11:22:54.185Z,81.59
2017-09-12T11:23:54.177Z,81.59
2017-09-12T11:24:54.486Z,81.78
2017-09-12T11:25:54.480Z,82.74
2017-09-12T11:26:54.161Z,83.54
2017-09-12T11:27:54.154Z,82.01
2017-09-12T11:28:54.147Z,81.92
2017-09-12T11:29:54.457Z,82.2
2017-09-12T11:30:54.454Z,81.82
2017-09-12T11:31:54.454Z,81.05
2017-09-12T11:32:54.441Z,80.77
2017-09-12T11:33:54.436Z,80.67
2017-09-12T11:34:54.432Z,81.15
2017-09-12T11:35:54.521Z,80.67
2017-09-12T11:36:54.105Z,80.58
2017-09-12T11:37:54.412Z,80
2017-09-12T11:38:54.408Z,79.52
2017-09-12T11:39:54.401Z,79.08
2017-09-12T11:40:54.393Z,79.18
2017-09-12T11:41:54.074Z,77.94
2017-09-12T11:42:54.382Z,78.13
2017-09-12T11:43:54.165Z,79.18
2017-09-12T11:44:54.058Z,79.95
2017-09-12T11:45:54.364Z,79.28
2017-09-12T11:46:54.047Z,78.32
2017-09-12T11:47:54.351Z,78.61
2017-09-12T11:48:54.033Z,77.46
2017-09-12T11:49:54.345Z,76.69
2017-09-12T11:50:54.336Z,75.64
2017-09-12T11:51:54.018Z,75.26
2017-09-12T11:52:54.424Z,75.35
2017-09-12T11:53:54.323Z,76.21
2017-09-12T11:54:54.000Z,77.26
2017-09-12T11:55:54.310Z,78.13
2017-09-12T11:56:54.306Z,78.8
2017-09-12T11:57:54.295Z,78.99
2017-09-12T11:58:53.979Z,77.55
2017-09-12T11:59:53.972Z,76.79
2017-09-12T12:00:54.281Z,77.55
2017-09-12T12:01:53.960Z,76.98
2017-09-12T12:02:54.272Z,75.26
2017-09-12T12:03:54.261Z,73.19
2017-09-12T12:04:53.943Z,73.54
2017-09-12T12:05:53.939Z,73.95
2017-09-12T12:06:54.252Z,74.15
2017-09-12T12:07:54.241Z,74.05
2017-09-12T12:08:54.341Z,73.86
2017-09-12T12:09:54.231Z,74.91
2017-09-12T12:10:54.222Z,74.15
2017-09-12T12:11:54.222Z,74.24
2017-09-12T12:12:54.212Z,73.95
2017-09-12T12:13:54.208Z,73.91
2017-09-12T12:14:53.887Z,72.96
2017-09-12T12:15:54.194Z,72.96
2017-09-12T12:16:53.877Z,73.44
2017-09-12T12:17:54.183Z,73.54
2017-09-12T12:18:53.865Z,73.05
2017-09-12T12:19:53.858Z,72.77
2017-09-12T12:20:54.170Z,73.24
2017-09-12T12:21:54.165Z,73.91
2017-09-12T12:22:53.845Z,73.82
2017-09-12T12:23:53.836Z,73.91
2017-09-12T12:24:54.247Z,75.01
2017-09-12T12:25:54.141Z,73.19
2017-09-12T12:26:54.137Z,72.61
2017-09-12T12:27:53.814Z,73.66
2017-09-12T12:28:53.809Z,72.8
2017-09-12T12:29:54.116Z,72.13
2017-09-12T12:30:54.110Z,71.84
2017-09-12T12:31:53.893Z,72.32
2017-09-12T12:32:53.786Z,72.42
2017-09-12T12:33:53.780Z,72.23
2017-09-12T12:34:54.090Z,72.42
2017-09-12T12:35:53.769Z,72.52
2017-09-12T12:36:54.079Z,72.8
2017-09-12T12:37:53.758Z,72.8
2017-09-12T12:38:53.752Z,72.71
2017-09-12T12:39:54.064Z,72.52
2017-09-12T12:40:54.055Z,72.42
2017-09-12T12:41:54.050Z,72.61
2017-09-12T12:42:54.043Z,71.66
2017-09-12T12:43:54.039Z,71.27
2017-09-12T12:44:54.031Z,71.27
2017-09-12T12:45:54.062Z,70.98
2017-09-12T12:46:53.710Z,70.79
2017-09-12T12:47:53.702Z,70.41
2017-09-12T12:48:54.011Z,68.59
2017-09-12T12:49:54.003Z,65.46
2017-09-12T12:50:53.998Z,64.79
2017-09-12T12:51:53.993Z,63.83
2017-09-12T12:52:53.674Z,63.64
2017-09-12T12:53:53.984Z,63.45
2017-09-12T12:54:53.980Z,64.4